createdAt,value
2018-12-10T00:01:44.679Z,5.3
2018-12-10T00:18:20.508Z,5.6
2018-12-10T00:34:56.650Z,5.3
2018-12-10T00:51:32.515Z,5.3
2018-12-10T01:08:08.171Z,5.0
2018-12-10T01:24:43.904Z,5.3
2018-12-10T01:57:55.241Z,5.3
2018-12-10T02:14:31.023Z,5.0
2018-12-10T02:31:06.448Z,4.6
2018-12-10T02:47:41.960Z,4.6
2018-12-10T03:04:17.360Z,4.6
2018-12-10T03:20:53.091Z,4.6
2018-12-10T03:37:28.169Z,4.6
2018-12-10T03:54:03.672Z,4.6
2018-12-10T04:10:39.067Z,4.3
2018-12-10T04:27:14.355Z,4.3
2018-12-10T04:43:49.594Z,4.3
2018-12-10T05:00:24.847Z,4.3
2018-12-10T05:17:00.066Z,4.3
2018-12-10T05:33:35.215Z,4.3
2018-12-10T05:50:10.373Z,4.3
2018-12-10T06:06:45.576Z,4.3
2018-12-10T06:23:20.708Z,4.3
2018-12-10T06:39:55.879Z,4.0
2018-12-10T06:56:31.012Z,4.0
2018-12-10T07:13:06.136Z,4.0
2018-12-10T07:29:41.243Z,4.0
2018-12-10T07:46:16.513Z,4.3
2018-12-10T08:02:51.668Z,4.3
2018-12-10T08:19:26.842Z,4.3
2018-12-10T08:36:02.222Z,4.6
2018-12-10T08:52:37.683Z,4.6
2018-12-10T09:09:13.714Z,5.3
2018-12-10T09:25:49.027Z,5.3
2018-12-10T09:42:24.958Z,5.3
2018-12-10T09:59:00.910Z,5.6
2018-12-10T10:15:37.170Z,6.2
2018-12-10T10:32:13.668Z,6.2
2018-12-10T10:48:50.329Z,6.2
2018-12-10T11:05:26.967Z,5.6
2018-12-10T11:22:03.551Z,5.9
2018-12-10T11:38:40.093Z,6.2
2018-12-10T12:11:53.201Z,5.6
2018-12-10T12:28:29.658Z,6.2
2018-12-10T12:45:06.250Z,6.2
2018-12-10T13:01:49.168Z,6.9
2018-12-10T13:18:20.232Z,6.9
2018-12-10T13:34:57.463Z,6.9
2018-12-10T13:44:55.596Z,6.2
2018-12-10T13:48:14.896Z,5.3
2018-12-10T13:51:33.931Z,4.3
2018-12-10T13:54:52.976Z,4.3
2018-12-10T14:01:31.126Z,4.6
2018-12-10T14:14:47.395Z,4.0
2018-12-10T14:31:27.274Z,3.7
2018-12-10T14:47:57.301Z,3.7
2018-12-10T15:04:32.331Z,4.0
2018-12-10T15:21:07.503Z,4.0
2018-12-10T15:37:42.755Z,4.0
2018-12-10T15:54:18.214Z,4.3
2018-12-10T16:10:53.662Z,4.3
2018-12-10T16:27:29.255Z,4.3
2018-12-10T16:44:04.959Z,4.6
2018-12-10T17:00:40.771Z,5.0
2018-12-10T17:17:16.824Z,4.6
2018-12-10T17:33:52.358Z,4.6
2018-12-10T17:50:28.375Z,5.0
2018-12-10T18:07:04.094Z,5.0
2018-12-10T18:23:39.944Z,4.6
2018-12-10T18:40:15.431Z,4.3
2018-12-10T18:56:50.688Z,4.3
2018-12-10T19:13:25.638Z,4.3
2018-12-10T19:30:00.847Z,4.6
2018-12-10T19:46:36.415Z,4.6
2018-12-10T20:03:11.486Z,4.6
2018-12-10T20:19:46.568Z,4.3
2018-12-10T20:36:21.723Z,4.0
2018-12-10T20:52:56.659Z,4.0
2018-12-10T21:09:31.874Z,4.3
2018-12-10T21:26:06.981Z,4.3
2018-12-10T21:42:41.904Z,4.0
2018-12-10T21:59:16.830Z,4.3
2018-12-10T22:15:52.147Z,4.3
2018-12-10T22:32:27.179Z,4.0
2018-12-10T22:49:02.402Z,4.3
2018-12-10T23:05:37.666Z,4.0
2018-12-10T23:22:12.446Z,4.0
2018-12-10T23:38:47.304Z,4.3
2018-12-10T23:55:22.255Z,4.0
